sensor_id;sensor_type;location;lat;lon;timestamp;temperature;humidity
24676;DHT22;12799;53.690;10.114;2022-07-18T00:01:18;15.90;99.90
24676;DHT22;12799;53.690;10.114;2022-07-18T00:03:20;15.90;99.90
24676;DHT22;12799;53.690;10.114;2022-07-18T00:05:22;15.90;99.90
24676;DHT22;12799;53.690;10.114;2022-07-18T00:07:24;15.90;99.90
24676;DHT22;12799;53.690;10.114;2022-07-18T00:09:26;15.80;99.90
24676;DHT22;12799;53.690;10.114;2022-07-18T00:11:28;15.90;99.90
24676;DHT22;12799;53.690;10.114;2022-07-18T00:13:31;15.80;99.90
24676;DHT22;12799;53.690;10.114;2022-07-18T00:15:33;15.80;99.90
24676;DHT22;12799;53.690;10.114;2022-07-18T00:17:36;15.80;99.90
24676;DHT22;12799;53.690;10.114;2022-07-18T00:19:38;15.80;99.90
24676;DHT22;12799;53.690;10.114;2022-07-18T00:21:41;15.80;99.90
24676;DHT22;12799;53.690;10.114;2022-07-18T00:23:43;15.70;99.90
24676;DHT22;12799;53.690;10.114;2022-07-18T00:25:45;15.70;99.90
24676;DHT22;12799;53.690;10.114;2022-07-18T00:27:47;15.70;99.90
24676;DHT22;12799;53.690;10.114;2022-07-18T00:29:49;15.70;99.90
24676;DHT22;12799;53.690;10.114;2022-07-18T00:31:51;15.70;99.90
24676;DHT22;12799;53.690;10.114;2022-07-18T00:33:54;15.70;99.90
24676;DHT22;12799;53.690;10.114;2022-07-18T00:35:56;15.70;99.90
24676;DHT22;12799;53.690;10.114;2022-07-18T00:37:58;15.70;99.90
24676;DHT22;12799;53.690;10.114;2022-07-18T00:40:02;15.60;99.90
24676;DHT22;12799;53.690;10.114;2022-07-18T00:42:04;15.60;99.90
24676;DHT22;12799;53.690;10.114;2022-07-18T00:44:06;15.60;99.90
24676;DHT22;12799;53.690;10.114;2022-07-18T00:46:20;15.60;99.90
24676;DHT22;12799;53.690;10.114;2022-07-18T00:48:22;15.60;99.90
24676;DHT22;12799;53.690;10.114;2022-07-18T00:50:26;15.60;99.90
24676;DHT22;12799;53.690;10.114;2022-07-18T00:52:28;15.60;99.90
24676;DHT22;12799;53.690;10.114;2022-07-18T00:54:30;15.50;99.90
24676;DHT22;12799;53.690;10.114;2022-07-18T00:56:33;15.60;99.90
24676;DHT22;12799;53.690;10.114;2022-07-18T00:58:35;15.60;99.90
24676;DHT22;12799;53.690;10.114;2022-07-18T01:00:38;15.50;99.90
24676;DHT22;12799;53.690;10.114;2022-07-18T01:02:58;15.50;99.90
24676;DHT22;12799;53.690;10.114;2022-07-18T01:05:00;15.50;99.90
24676;DHT22;12799;53.690;10.114;2022-07-18T01:07:03;15.40;99.90
24676;DHT22;12799;53.690;10.114;2022-07-18T01:09:05;15.40;99.90
24676;DHT22;12799;53.690;10.114;2022-07-18T01:11:07;15.30;99.90
24676;DHT22;12799;53.690;10.114;2022-07-18T01:13:10;15.40;99.90
24676;DHT22;12799;53.690;10.114;2022-07-18T01:15:12;15.30;99.90
24676;DHT22;12799;53.690;10.114;2022-07-18T01:17:15;15.40;99.90
24676;DHT22;12799;53.690;10.114;2022-07-18T01:19:17;15.40;99.90
24676;DHT22;12799;53.690;10.114;2022-07-18T01:21:21;15.30;99.90
24676;DHT22;12799;53.690;10.114;2022-07-18T01:23:23;15.30;99.90
24676;DHT22;12799;53.690;10.114;2022-07-18T01:25:26;15.30;99.90
24676;DHT22;12799;53.690;10.114;2022-07-18T01:27:28;15.30;99.90
24676;DHT22;12799;53.690;10.114;2022-07-18T01:29:30;15.30;99.90
24676;DHT22;12799;53.690;10.114;2022-07-18T01:31:32;15.30;99.90
24676;DHT22;12799;53.690;10.114;2022-07-18T01:33:35;15.20;99.90
24676;DHT22;12799;53.690;10.114;2022-07-18T01:35:37;15.20;99.90
24676;DHT22;12799;53.690;10.114;2022-07-18T01:37:40;15.20;99.90
24676;DHT22;12799;53.690;10.114;2022-07-18T01:39:43;15.10;99.90
24676;DHT22;12799;53.690;10.114;2022-07-18T01:41:45;15.10;99.90
24676;DHT22;12799;53.690;10.114;2022-07-18T01:43:47;15.10;99.90
24676;DHT22;12799;53.690;10.114;2022-07-18T01:45:49;15.10;99.90
24676;DHT22;12799;53.690;10.114;2022-07-18T01:47:51;15.10;99.90
24676;DHT22;12799;53.690;10.114;2022-07-18T01:49:53;15.00;99.90
24676;DHT22;12799;53.690;10.114;2022-07-18T01:51:56;15.00;99.90
24676;DHT22;12799;53.690;10.114;2022-07-18T01:54:00;15.00;99.90
24676;DHT22;12799;53.690;10.114;2022-07-18T01:56:03;15.00;99.90
24676;DHT22;12799;53.690;10.114;2022-07-18T01:58:05;14.90;99.90
24676;DHT22;12799;53.690;10.114;2022-07-18T02:00:09;14.90;99.90
24676;DHT22;12799;53.690;10.114;2022-07-18T02:02:12;14.90;99.90
24676;DHT22;12799;53.690;10.114;2022-07-18T02:04:14;14.90;99.90
24676;DHT22;12799;53.690;10.114;2022-07-18T02:06:16;14.80;99.90
24676;DHT22;12799;53.690;10.114;2022-07-18T02:08:18;14.80;99.90
24676;DHT22;12799;53.690;10.114;2022-07-18T02:10:21;14.80;99.90
24676;DHT22;12799;53.690;10.114;2022-07-18T02:12:23;14.80;99.90
24676;DHT22;12799;53.690;10.114;2022-07-18T02:14:25;14.80;99.90
24676;DHT22;12799;53.690;10.114;2022-07-18T02:16:27;14.80;99.90
24676;DHT22;12799;53.690;10.114;2022-07-18T02:18:29;14.80;99.90
24676;DHT22;12799;53.690;10.114;2022-07-18T02:20:33;14.70;99.90
24676;DHT22;12799;53.690;10.114;2022-07-18T02:22:35;14.80;99.90
24676;DHT22;12799;53.690;10.114;2022-07-18T02:24:37;14.70;99.90
24676;DHT22;12799;53.690;10.114;2022-07-18T02:26:40;14.70;99.90
24676;DHT22;12799;53.690;10.114;2022-07-18T02:28:42;14.70;99.90
24676;DHT22;12799;53.690;10.114;2022-07-18T02:30:44;14.70;99.90
24676;DHT22;12799;53.690;10.114;2022-07-18T02:32:46;14.70;99.90
24676;DHT22;12799;53.690;10.114;2022-07-18T02:34:49;14.70;99.90
24676;DHT22;12799;53.690;10.114;2022-07-18T02:36:51;14.70;99.90
24676;DHT22;12799;53.690;10.114;2022-07-18T02:38:53;14.70;99.90
24676;DHT22;12799;53.690;10.114;2022-07-18T02:40:55;14.60;99.90
24676;DHT22;12799;53.690;10.114;2022-07-18T02:42:58;14.60;99.90
24676;DHT22;12799;53.690;10.114;2022-07-18T02:45:00;14.60;99.90
24676;DHT22;12799;53.690;10.114;2022-07-18T02:47:03;14.60;99.90
24676;DHT22;12799;53.690;10.114;2022-07-18T02:49:05;14.70;99.90
24676;DHT22;12799;53.690;10.114;2022-07-18T02:51:07;14.70;99.90
24676;DHT22;12799;53.690;10.114;2022-07-18T02:53:09;14.70;99.90
24676;DHT22;12799;53.690;10.114;2022-07-18T02:55:12;14.70;99.90
24676;DHT22;12799;53.690;10.114;2022-07-18T02:57:14;14.70;99.90
24676;DHT22;12799;53.690;10.114;2022-07-18T02:59:18;14.70;99.90
24676;DHT22;12799;53.690;10.114;2022-07-18T03:01:21;14.70;99.90
24676;DHT22;12799;53.690;10.114;2022-07-18T03:03:23;14.70;99.90
24676;DHT22;12799;53.690;10.114;2022-07-18T03:05:25;14.70;99.90
24676;DHT22;12799;53.690;10.114;2022-07-18T03:07:27;14.70;99.90
24676;DHT22;12799;53.690;10.114;2022-07-18T03:09:29;14.70;99.90
24676;DHT22;12799;53.690;10.114;2022-07-18T03:11:31;14.70;99.90
24676;DHT22;12799;53.690;10.114;2022-07-18T03:13:33;14.70;99.90
24676;DHT22;12799;53.690;10.114;2022-07-18T03:15:36;14.70;99.90
24676;DHT22;12799;53.690;10.114;2022-07-18T03:17:38;14.60;99.90
24676;DHT22;12799;53.690;10.114;2022-07-18T03:19:40;14.60;99.90
24676;DHT22;12799;53.690;10.114;2022-07-18T03:21:42;14.60;99.90
24676;DHT22;12799;53.690;10.114;2022-07-18T03:23:44;14.60;99.90
24676;DHT22;12799;53.690;10.114;2022-07-18T03:25:46;14.60;99.90
24676;DHT22;12799;53.690;10.114;2022-07-18T03:27:48;14.60;99.90
24676;DHT22;12799;53.690;10.114;2022-07-18T03:29:50;14.50;99.90
24676;DHT22;12799;53.690;10.114;2022-07-18T03:31:53;14.50;99.90
24676;DHT22;12799;53.690;10.114;2022-07-18T03:33:55;14.50;99.90
24676;DHT22;12799;53.690;10.114;2022-07-18T03:35:57;14.40;99.90
24676;DHT22;12799;53.690;10.114;2022-07-18T03:38:00;14.40;99.90
24676;DHT22;12799;53.690;10.114;2022-07-18T03:40:02;14.40;99.90
24676;DHT22;12799;53.690;10.114;2022-07-18T03:42:04;14.40;99.90
24676;DHT22;12799;53.690;10.114;2022-07-18T03:44:06;14.40;99.90
24676;DHT22;12799;53.690;10.114;2022-07-18T03:46:08;14.40;99.90
24676;DHT22;12799;53.690;10.114;2022-07-18T03:48:12;14.40;99.90
24676;DHT22;12799;53.690;10.114;2022-07-18T03:50:14;14.40;99.90
24676;DHT22;12799;53.690;10.114;2022-07-18T03:52:16;14.40;99.90
24676;DHT22;12799;53.690;10.114;2022-07-18T03:54:18;14.40;99.90
24676;DHT22;12799;53.690;10.114;2022-07-18T03:56:20;14.40;99.90
24676;DHT22;12799;53.690;10.114;2022-07-18T03:58:22;14.50;99.90
24676;DHT22;12799;53.690;10.114;2022-07-18T04:00:24;14.50;99.90
24676;DHT22;12799;53.690;10.114;2022-07-18T04:02:26;14.50;99.90
24676;DHT22;12799;53.690;10.114;2022-07-18T04:04:29;14.50;99.90
24676;DHT22;12799;53.690;10.114;2022-07-18T04:06:31;14.50;99.90
24676;DHT22;12799;53.690;10.114;2022-07-18T04:08:33;14.50;99.90
24676;DHT22;12799;53.690;10.114;2022-07-18T04:10:35;14.50;99.90
24676;DHT22;12799;53.690;10.114;2022-07-18T04:12:47;14.50;99.90
24676;DHT22;12799;53.690;10.114;2022-07-18T04:14:49;14.50;99.90
24676;DHT22;12799;53.690;10.114;2022-07-18T04:16:51;14.50;99.90
24676;DHT22;12799;53.690;10.114;2022-07-18T04:18:53;14.60;99.90
24676;DHT22;12799;53.690;10.114;2022-07-18T04:20:56;14.60;99.90
24676;DHT22;12799;53.690;10.114;2022-07-18T04:22:59;14.50;99.90
24676;DHT22;12799;53.690;10.114;2022-07-18T04:25:02;14.50;99.90
24676;DHT22;12799;53.690;10.114;2022-07-18T04:27:04;14.50;99.90
24676;DHT22;12799;53.690;10.114;2022-07-18T04:29:06;14.50;99.90
24676;DHT22;12799;53.690;10.114;2022-07-18T04:31:08;14.50;99.90
24676;DHT22;12799;53.690;10.114;2022-07-18T04:33:11;14.60;99.90
24676;DHT22;12799;53.690;10.114;2022-07-18T04:35:13;14.60;99.90
24676;DHT22;12799;53.690;10.114;2022-07-18T04:37:17;14.60;99.90
24676;DHT22;12799;53.690;10.114;2022-07-18T04:39:18;14.60;99.90
24676;DHT22;12799;53.690;10.114;2022-07-18T04:41:20;14.60;99.90
24676;DHT22;12799;53.690;10.114;2022-07-18T04:43:25;14.60;99.90
24676;DHT22;12799;53.690;10.114;2022-07-18T04:45:27;14.60;99.90
24676;DHT22;12799;53.690;10.114;2022-07-18T04:47:29;14.60;99.90
24676;DHT22;12799;53.690;10.114;2022-07-18T04:49:31;14.60;99.90
24676;DHT22;12799;53.690;10.114;2022-07-18T04:51:33;14.60;99.90
24676;DHT22;12799;53.690;10.114;2022-07-18T04:53:36;14.60;99.90
24676;DHT22;12799;53.690;10.114;2022-07-18T04:55:38;14.60;99.90
24676;DHT22;12799;53.690;10.114;2022-07-18T04:57:40;14.70;99.90
24676;DHT22;12799;53.690;10.114;2022-07-18T04:59:43;14.70;99.90
24676;DHT22;12799;53.690;10.114;2022-07-18T05:01:45;14.70;99.90
24676;DHT22;12799;53.690;10.114;2022-07-18T05:03:47;14.70;99.90
24676;DHT22;12799;53.690;10.114;2022-07-18T05:05:48;14.80;99.90
24676;DHT22;12799;53.690;10.114;2022-07-18T05:07:51;14.80;99.90
24676;DHT22;12799;53.690;10.114;2022-07-18T05:09:54;14.90;99.90
24676;DHT22;12799;53.690;10.114;2022-07-18T05:11:56;14.90;99.90
24676;DHT22;12799;53.690;10.114;2022-07-18T05:13:58;15.00;99.90
24676;DHT22;12799;53.690;10.114;2022-07-18T05:16:00;15.00;99.90
24676;DHT22;12799;53.690;10.114;2022-07-18T05:18:02;15.10;99.90
24676;DHT22;12799;53.690;10.114;2022-07-18T05:20:05;15.20;99.90
24676;DHT22;12799;53.690;10.114;2022-07-18T05:22:08;15.20;99.90
24676;DHT22;12799;53.690;10.114;2022-07-18T05:24:10;15.30;99.90
24676;DHT22;12799;53.690;10.114;2022-07-18T05:26:14;15.40;99.90
24676;DHT22;12799;53.690;10.114;2022-07-18T05:28:16;15.40;99.90
24676;DHT22;12799;53.690;10.114;2022-07-18T05:30:18;15.50;99.90
24676;DHT22;12799;53.690;10.114;2022-07-18T05:32:21;15.60;99.90
24676;DHT22;12799;53.690;10.114;2022-07-18T05:34:23;15.70;99.90
24676;DHT22;12799;53.690;10.114;2022-07-18T05:36:25;15.70;99.90
24676;DHT22;12799;53.690;10.114;2022-07-18T05:38:27;15.80;99.90
24676;DHT22;12799;53.690;10.114;2022-07-18T05:40:29;15.80;99.90
24676;DHT22;12799;53.690;10.114;2022-07-18T05:42:32;15.80;99.90
24676;DHT22;12799;53.690;10.114;2022-07-18T05:44:34;15.90;99.90
24676;DHT22;12799;53.690;10.114;2022-07-18T05:46:36;15.90;99.90
24676;DHT22;12799;53.690;10.114;2022-07-18T05:48:38;16.00;99.90
24676;DHT22;12799;53.690;10.114;2022-07-18T05:50:40;16.10;99.90
24676;DHT22;12799;53.690;10.114;2022-07-18T05:52:42;16.00;99.90
24676;DHT22;12799;53.690;10.114;2022-07-18T05:54:44;16.10;99.90
24676;DHT22;12799;53.690;10.114;2022-07-18T05:56:47;16.10;99.90
24676;DHT22;12799;53.690;10.114;2022-07-18T05:58:51;16.20;99.90
24676;DHT22;12799;53.690;10.114;2022-07-18T06:00:53;16.20;99.90
24676;DHT22;12799;53.690;10.114;2022-07-18T06:02:55;16.30;99.90
24676;DHT22;12799;53.690;10.114;2022-07-18T06:04:58;16.30;99.90
24676;DHT22;12799;53.690;10.114;2022-07-18T06:07:00;16.40;99.90
24676;DHT22;12799;53.690;10.114;2022-07-18T06:09:02;16.40;99.90
24676;DHT22;12799;53.690;10.114;2022-07-18T06:11:05;16.50;99.90
24676;DHT22;12799;53.690;10.114;2022-07-18T06:13:09;16.50;99.90
24676;DHT22;12799;53.690;10.114;2022-07-18T06:15:14;16.60;99.90
24676;DHT22;12799;53.690;10.114;2022-07-18T06:17:16;16.60;99.90
24676;DHT22;12799;53.690;10.114;2022-07-18T06:19:18;16.70;99.90
24676;DHT22;12799;53.690;10.114;2022-07-18T06:21:20;16.70;99.90
24676;DHT22;12799;53.690;10.114;2022-07-18T06:23:22;16.80;99.90
24676;DHT22;12799;53.690;10.114;2022-07-18T06:25:24;16.90;99.90
24676;DHT22;12799;53.690;10.114;2022-07-18T06:27:26;16.90;99.90
24676;DHT22;12799;53.690;10.114;2022-07-18T06:29:28;17.10;99.90
24676;DHT22;12799;53.690;10.114;2022-07-18T06:31:31;17.10;99.90
24676;DHT22;12799;53.690;10.114;2022-07-18T06:33:33;17.20;99.90
24676;DHT22;12799;53.690;10.114;2022-07-18T06:35:35;17.30;99.90
24676;DHT22;12799;53.690;10.114;2022-07-18T06:37:37;17.30;99.90
24676;DHT22;12799;53.690;10.114;2022-07-18T06:39:39;17.40;99.90
24676;DHT22;12799;53.690;10.114;2022-07-18T06:41:41;17.50;99.90
24676;DHT22;12799;53.690;10.114;2022-07-18T06:43:43;17.60;99.90
24676;DHT22;12799;53.690;10.114;2022-07-18T06:45:45;17.70;99.90
24676;DHT22;12799;53.690;10.114;2022-07-18T06:47:49;17.80;99.90
24676;DHT22;12799;53.690;10.114;2022-07-18T06:49:51;17.90;99.90
24676;DHT22;12799;53.690;10.114;2022-07-18T06:51:52;18.00;99.90
24676;DHT22;12799;53.690;10.114;2022-07-18T06:53:55;18.10;99.90
24676;DHT22;12799;53.690;10.114;2022-07-18T06:55:57;18.20;99.90
24676;DHT22;12799;53.690;10.114;2022-07-18T06:57:59;18.30;99.90
24676;DHT22;12799;53.690;10.114;2022-07-18T07:00:01;18.30;99.90
24676;DHT22;12799;53.690;10.114;2022-07-18T07:02:04;18.50;99.90
24676;DHT22;12799;53.690;10.114;2022-07-18T07:04:07;18.50;99.90
24676;DHT22;12799;53.690;10.114;2022-07-18T07:06:09;18.50;99.90
24676;DHT22;12799;53.690;10.114;2022-07-18T07:08:11;18.70;99.90
24676;DHT22;12799;53.690;10.114;2022-07-18T07:10:14;18.80;99.90
24676;DHT22;12799;53.690;10.114;2022-07-18T07:12:17;19.00;99.90
24676;DHT22;12799;53.690;10.114;2022-07-18T07:14:19;19.10;99.90
24676;DHT22;12799;53.690;10.114;2022-07-18T07:16:21;19.20;99.90
24676;DHT22;12799;53.690;10.114;2022-07-18T07:18:23;19.30;99.90
24676;DHT22;12799;53.690;10.114;2022-07-18T07:20:26;19.50;99.90
24676;DHT22;12799;53.690;10.114;2022-07-18T07:22:28;19.60;99.90
24676;DHT22;12799;53.690;10.114;2022-07-18T07:24:30;19.70;99.90
24676;DHT22;12799;53.690;10.114;2022-07-18T07:26:32;19.90;99.90
24676;DHT22;12799;53.690;10.114;2022-07-18T07:28:34;20.10;99.90
24676;DHT22;12799;53.690;10.114;2022-07-18T07:30:36;20.10;99.90
24676;DHT22;12799;53.690;10.114;2022-07-18T07:32:40;20.20;99.90
24676;DHT22;12799;53.690;10.114;2022-07-18T07:34:42;20.30;99.90
24676;DHT22;12799;53.690;10.114;2022-07-18T07:36:46;20.40;99.90
24676;DHT22;12799;53.690;10.114;2022-07-18T07:38:48;20.50;99.90
24676;DHT22;12799;53.690;10.114;2022-07-18T07:40:50;20.60;99.90
24676;DHT22;12799;53.690;10.114;2022-07-18T07:43:04;20.60;99.90
24676;DHT22;12799;53.690;10.114;2022-07-18T07:45:08;20.70;99.90
24676;DHT22;12799;53.690;10.114;2022-07-18T07:47:10;20.80;99.90
24676;DHT22;12799;53.690;10.114;2022-07-18T07:49:12;21.00;99.90
24676;DHT22;12799;53.690;10.114;2022-07-18T07:51:14;21.00;99.90
24676;DHT22;12799;53.690;10.114;2022-07-18T07:53:18;21.10;99.90
24676;DHT22;12799;53.690;10.114;2022-07-18T07:55:20;21.20;99.90
24676;DHT22;12799;53.690;10.114;2022-07-18T07:57:22;21.40;99.90
24676;DHT22;12799;53.690;10.114;2022-07-18T07:59:24;21.60;99.90
24676;DHT22;12799;53.690;10.114;2022-07-18T08:01:26;21.70;99.90
24676;DHT22;12799;53.690;10.114;2022-07-18T08:03:28;21.80;99.90
24676;DHT22;12799;53.690;10.114;2022-07-18T08:05:33;21.80;99.90
24676;DHT22;12799;53.690;10.114;2022-07-18T08:07:35;21.90;99.90
24676;DHT22;12799;53.690;10.114;2022-07-18T08:09:38;22.00;99.90
24676;DHT22;12799;53.690;10.114;2022-07-18T08:11:40;22.20;99.90
24676;DHT22;12799;53.690;10.114;2022-07-18T08:13:42;22.20;99.90
24676;DHT22;12799;53.690;10.114;2022-07-18T08:15:44;22.30;99.90
24676;DHT22;12799;53.690;10.114;2022-07-18T08:17:46;22.30;99.90
24676;DHT22;12799;53.690;10.114;2022-07-18T08:19:48;22.30;99.90
24676;DHT22;12799;53.690;10.114;2022-07-18T08:21:50;22.30;99.90
24676;DHT22;12799;53.690;10.114;2022-07-18T08:23:52;22.40;99.90
24676;DHT22;12799;53.690;10.114;2022-07-18T08:25:56;22.40;99.90
24676;DHT22;12799;53.690;10.114;2022-07-18T08:27:58;22.60;99.90
24676;DHT22;12799;53.690;10.114;2022-07-18T08:30:01;22.80;99.90
24676;DHT22;12799;53.690;10.114;2022-07-18T08:32:03;22.80;99.90
24676;DHT22;12799;53.690;10.114;2022-07-18T08:34:05;22.90;99.90
24676;DHT22;12799;53.690;10.114;2022-07-18T08:36:07;23.00;99.90
24676;DHT22;12799;53.690;10.114;2022-07-18T08:38:09;23.20;99.90
24676;DHT22;12799;53.690;10.114;2022-07-18T08:40:11;23.20;99.90
24676;DHT22;12799;53.690;10.114;2022-07-18T08:42:16;23.50;99.90
24676;DHT22;12799;53.690;10.114;2022-07-18T08:44:20;23.60;99.90
24676;DHT22;12799;53.690;10.114;2022-07-18T08:46:22;23.60;99.90
24676;DHT22;12799;53.690;10.114;2022-07-18T08:48:25;23.70;99.90
24676;DHT22;12799;53.690;10.114;2022-07-18T08:50:27;23.80;99.90
24676;DHT22;12799;53.690;10.114;2022-07-18T08:52:30;23.90;99.90
24676;DHT22;12799;53.690;10.114;2022-07-18T08:54:33;24.00;99.90
24676;DHT22;12799;53.690;10.114;2022-07-18T08:56:37;24.10;99.90
24676;DHT22;12799;53.690;10.114;2022-07-18T08:58:40;24.20;99.90
24676;DHT22;12799;53.690;10.114;2022-07-18T09:00:42;24.30;99.90
24676;DHT22;12799;53.690;10.114;2022-07-18T09:02:44;24.40;99.90
24676;DHT22;12799;53.690;10.114;2022-07-18T09:04:46;24.40;99.90
24676;DHT22;12799;53.690;10.114;2022-07-18T09:06:49;24.40;99.90
24676;DHT22;12799;53.690;10.114;2022-07-18T09:08:58;24.50;99.90
24676;DHT22;12799;53.690;10.114;2022-07-18T09:11:02;24.50;99.90
24676;DHT22;12799;53.690;10.114;2022-07-18T09:13:05;24.60;99.90
24676;DHT22;12799;53.690;10.114;2022-07-18T09:15:09;24.80;99.90
24676;DHT22;12799;53.690;10.114;2022-07-18T09:17:12;24.90;99.90
24676;DHT22;12799;53.690;10.114;2022-07-18T09:19:16;25.00;99.90
24676;DHT22;12799;53.690;10.114;2022-07-18T09:21:20;25.10;99.90
24676;DHT22;12799;53.690;10.114;2022-07-18T09:23:27;25.30;99.90
24676;DHT22;12799;53.690;10.114;2022-07-18T09:25:32;25.50;99.90
24676;DHT22;12799;53.690;10.114;2022-07-18T09:27:37;25.50;99.90
24676;DHT22;12799;53.690;10.114;2022-07-18T09:29:39;25.60;99.90
24676;DHT22;12799;53.690;10.114;2022-07-18T09:31:48;25.60;99.90
24676;DHT22;12799;53.690;10.114;2022-07-18T09:33:54;25.60;99.90
24676;DHT22;12799;53.690;10.114;2022-07-18T09:35:57;25.70;99.90
24676;DHT22;12799;53.690;10.114;2022-07-18T09:38:01;25.90;99.90
24676;DHT22;12799;53.690;10.114;2022-07-18T09:40:14;26.10;99.90
24676;DHT22;12799;53.690;10.114;2022-07-18T09:42:18;26.20;99.90
24676;DHT22;12799;53.690;10.114;2022-07-18T09:44:20;26.30;99.90
24676;DHT22;12799;53.690;10.114;2022-07-18T09:46:22;26.50;99.90
24676;DHT22;12799;53.690;10.114;2022-07-18T09:48:26;26.70;99.90
24676;DHT22;12799;53.690;10.114;2022-07-18T09:50:32;26.80;99.90
24676;DHT22;12799;53.690;10.114;2022-07-18T09:52:34;26.80;99.90
24676;DHT22;12799;53.690;10.114;2022-07-18T09:54:37;26.70;99.90
24676;DHT22;12799;53.690;10.114;2022-07-18T09:56:39;26.80;99.90
24676;DHT22;12799;53.690;10.114;2022-07-18T09:58:55;27.00;99.90
24676;DHT22;12799;53.690;10.114;2022-07-18T10:00:59;27.00;99.90
24676;DHT22;12799;53.690;10.114;2022-07-18T10:03:03;27.20;99.90
24676;DHT22;12799;53.690;10.114;2022-07-18T10:05:07;27.40;99.90
24676;DHT22;12799;53.690;10.114;2022-07-18T10:07:10;27.40;99.90
24676;DHT22;12799;53.690;10.114;2022-07-18T10:09:12;27.60;99.90
24676;DHT22;12799;53.690;10.114;2022-07-18T10:11:14;27.40;99.90
24676;DHT22;12799;53.690;10.114;2022-07-18T10:13:18;27.60;99.90
24676;DHT22;12799;53.690;10.114;2022-07-18T10:15:21;27.80;99.90
24676;DHT22;12799;53.690;10.114;2022-07-18T10:17:24;28.00;99.90
24676;DHT22;12799;53.690;10.114;2022-07-18T10:19:26;28.10;99.90
24676;DHT22;12799;53.690;10.114;2022-07-18T10:21:30;27.90;99.90
24676;DHT22;12799;53.690;10.114;2022-07-18T10:23:34;28.20;99.90
24676;DHT22;12799;53.690;10.114;2022-07-18T10:25:37;28.10;99.90
24676;DHT22;12799;53.690;10.114;2022-07-18T10:27:50;28.00;99.90
24676;DHT22;12799;53.690;10.114;2022-07-18T10:30:10;28.20;99.90
24676;DHT22;12799;53.690;10.114;2022-07-18T10:32:12;28.30;99.90
24676;DHT22;12799;53.690;10.114;2022-07-18T10:34:14;28.40;99.90
24676;DHT22;12799;53.690;10.114;2022-07-18T10:36:16;28.60;99.90
24676;DHT22;12799;53.690;10.114;2022-07-18T10:38:23;28.70;99.90
24676;DHT22;12799;53.690;10.114;2022-07-18T10:40:27;28.90;99.90
24676;DHT22;12799;53.690;10.114;2022-07-18T10:42:29;29.00;99.90
24676;DHT22;12799;53.690;10.114;2022-07-18T10:44:32;28.80;99.90
24676;DHT22;12799;53.690;10.114;2022-07-18T10:47:04;28.80;99.90
24676;DHT22;12799;53.690;10.114;2022-07-18T10:49:06;28.90;99.90
24676;DHT22;12799;53.690;10.114;2022-07-18T10:51:09;28.80;99.90
24676;DHT22;12799;53.690;10.114;2022-07-18T10:53:12;28.80;99.90
24676;DHT22;12799;53.690;10.114;2022-07-18T10:55:33;28.80;99.90
24676;DHT22;12799;53.690;10.114;2022-07-18T10:57:37;29.00;99.90
24676;DHT22;12799;53.690;10.114;2022-07-18T11:00:00;29.00;99.90
24676;DHT22;12799;53.690;10.114;2022-07-18T11:02:05;29.00;99.90
24676;DHT22;12799;53.690;10.114;2022-07-18T11:04:22;28.90;99.90
24676;DHT22;12799;53.690;10.114;2022-07-18T11:06:24;28.70;99.90
24676;DHT22;12799;53.690;10.114;2022-07-18T11:08:46;28.70;99.90
24676;DHT22;12799;53.690;10.114;2022-07-18T11:11:09;28.60;99.90
24676;DHT22;12799;53.690;10.114;2022-07-18T11:13:21;28.50;99.90
24676;DHT22;12799;53.690;10.114;2022-07-18T11:15:23;28.50;99.90
24676;DHT22;12799;53.690;10.114;2022-07-18T11:22:41;28.40;99.90
24676;DHT22;12799;53.690;10.114;2022-07-18T11:24:43;28.30;99.90
24676;DHT22;12799;53.690;10.114;2022-07-18T11:26:47;28.30;99.90
24676;DHT22;12799;53.690;10.114;2022-07-18T11:28:56;28.30;99.90
24676;DHT22;12799;53.690;10.114;2022-07-18T11:31:00;28.30;99.90
24676;DHT22;12799;53.690;10.114;2022-07-18T11:33:03;28.30;99.90
24676;DHT22;12799;53.690;10.114;2022-07-18T11:35:06;28.40;99.90
24676;DHT22;12799;53.690;10.114;2022-07-18T11:37:12;28.30;99.90
24676;DHT22;12799;53.690;10.114;2022-07-18T11:39:26;28.40;99.90
24676;DHT22;12799;53.690;10.114;2022-07-18T11:41:29;28.30;99.90
24676;DHT22;12799;53.690;10.114;2022-07-18T11:43:33;28.30;99.90
24676;DHT22;12799;53.690;10.114;2022-07-18T11:45:35;28.10;99.90
24676;DHT22;12799;53.690;10.114;2022-07-18T11:47:38;28.20;99.90
24676;DHT22;12799;53.690;10.114;2022-07-18T11:49:53;28.30;99.90
24676;DHT22;12799;53.690;10.114;2022-07-18T11:51:56;28.20;99.90
24676;DHT22;12799;53.690;10.114;2022-07-18T11:53:58;28.30;99.90
24676;DHT22;12799;53.690;10.114;2022-07-18T11:56:04;28.30;99.90
24676;DHT22;12799;53.690;10.114;2022-07-18T11:58:07;28.30;99.90
24676;DHT22;12799;53.690;10.114;2022-07-18T12:00:19;28.30;99.90
24676;DHT22;12799;53.690;10.114;2022-07-18T12:05:00;28.30;99.90
24676;DHT22;12799;53.690;10.114;2022-07-18T12:07:13;28.30;99.90
24676;DHT22;12799;53.690;10.114;2022-07-18T12:09:26;28.30;99.90
24676;DHT22;12799;53.690;10.114;2022-07-18T12:11:29;28.30;99.90
24676;DHT22;12799;53.690;10.114;2022-07-18T12:13:51;28.30;99.90
24676;DHT22;12799;53.690;10.114;2022-07-18T12:15:56;28.30;99.90
24676;DHT22;12799;53.690;10.114;2022-07-18T12:17:58;28.30;99.90
24676;DHT22;12799;53.690;10.114;2022-07-18T12:20:11;28.20;99.90
24676;DHT22;12799;53.690;10.114;2022-07-18T12:22:13;28.40;99.90
24676;DHT22;12799;53.690;10.114;2022-07-18T12:24:30;28.40;99.90
24676;DHT22;12799;53.690;10.114;2022-07-18T12:26:32;28.40;99.90
24676;DHT22;12799;53.690;10.114;2022-07-18T12:28:34;28.50;99.90
24676;DHT22;12799;53.690;10.114;2022-07-18T12:30:36;28.60;99.90
24676;DHT22;12799;53.690;10.114;2022-07-18T12:32:45;28.50;99.90
24676;DHT22;12799;53.690;10.114;2022-07-18T12:34:54;28.40;99.90
24676;DHT22;12799;53.690;10.114;2022-07-18T12:36:57;28.60;99.90
24676;DHT22;12799;53.690;10.114;2022-07-18T12:39:00;28.70;99.90
24676;DHT22;12799;53.690;10.114;2022-07-18T12:41:02;28.70;99.90
24676;DHT22;12799;53.690;10.114;2022-07-18T12:43:06;28.90;99.90
24676;DHT22;12799;53.690;10.114;2022-07-18T12:45:10;29.00;99.90
24676;DHT22;12799;53.690;10.114;2022-07-18T12:47:12;29.20;99.90
24676;DHT22;12799;53.690;10.114;2022-07-18T12:49:16;29.30;99.90
24676;DHT22;12799;53.690;10.114;2022-07-18T12:51:18;29.50;99.90
24676;DHT22;12799;53.690;10.114;2022-07-18T12:53:20;29.60;99.90
24676;DHT22;12799;53.690;10.114;2022-07-18T12:55:22;29.70;99.90